HP: University of Magic Arts

Объявление

Добро пожаловать в магический Лондон!
В игре: 2025 год, сентябрь. В УМИ начинается юбилейный учебный год.

Рейтинг Ролевых Ресурсов - RPG TOP Рейтинг форумов Forum-top.ru

Информация о пользователе

Привет, Гость! Войдите или зарегистрируйтесь.


Вы здесь » HP: University of Magic Arts » Прошлое и будущее


Прошлое и будущее

Тем 1 страница 30 из 49

Тема Ответов Просмотров Последнее сообщение
1 Важно: Закрыта Шаблон эпизода  Magic
0 183 2017-12-05 13:15:50  Magic
2 Sudden rainy day  Horejs Chang
0 24 Сегодня 04:56:11  Horejs Chang
3 Chaque chose en son temps  Albert Flint
7 186 Вчера 20:53:55  Vivien Lafor
4 A big little mermaid  Luna Scamander
7 77 Вчера 20:32:09  Rolf Scamander
20 273 Вчера 08:20:42  Theobald Travers
15 249 2018-12-11 21:51:09  Ethan Travers
7 Дороги сплелись  Chloe Bletchley
1 44 2018-12-11 02:54:59  Albert Flint
3 53 2018-12-10 12:13:01  Vivien Lafor
9 147 2018-12-10 12:05:26  Vivien Lafor
8 102 2018-12-09 19:06:16  Harry Potter
11 Out of Hell  Farran Moran
6 102 2018-12-09 18:25:52  Farran Moran
12 The Small Christmas Story  Horejs Chang
4 46 2018-12-08 09:00:57  Horejs Chang
6 82 2018-12-08 08:58:59  Horejs Chang
14 tell me everything!  Lucy Weasley
0 6 2018-12-06 18:32:54  Lucy Weasley
1 23 2018-12-05 07:47:14  Horejs Chang
10 192 2018-12-02 01:37:29  Rosaline Hogarth
9 284 2018-12-01 15:31:53  Rosaline Hogarth
18 fly me to the moon  Alice Longbottom
3 106 2018-11-30 23:37:44  Hugo Weasley
1 25 2018-11-30 17:54:10  Ronald Weasley
18 245 2018-11-27 23:18:12  Ethan Travers
21 10 галлеонов  Ruby Morrison
3 90 2018-11-22 15:27:20  Ronald Weasley
22 It's not over yet  Harry Potter
6 210 2018-11-16 01:01:15  Ronald Weasley
3 106 2018-11-14 18:59:36  Auron Travers
24 Eruditio aspera optima est  Blaise Zabini
4 114 2018-11-13 02:59:12  Blaise Zabini
25 be my blue-haired hero  Alice Longbottom
6 140 2018-11-13 00:24:48  Alice Longbottom
2 109 2018-11-11 23:41:45  Hugo Weasley
1 49 2018-11-11 15:15:21  Rosaline Hogarth
5 244 2018-11-07 22:56:16  Alice Longbottom
13 241 2018-11-07 19:40:25  Alice Longbottom
30 Closer  Harry Potter
5 83 2018-11-06 23:53:22  Harry Potter

Вы здесь » HP: University of Magic Arts » Прошлое и будущее